Aviation Digital Data Service (ADDS)

Output produced by TAFs form (1132 UTC 19 January 2018)
found at http://www.aviationweather.gov/adds/tafs/
 
RJEC 191100Z 16005KT 9999 -SHSN FEW008 SCT018 BKN025 M07/M09 Q1017
TAF RJEC 191111Z 1912/2018 17006KT 9999 FEW008 BKN020 
     TEMPO 1912/1915 4000 -SHSN 
     BECMG 2000/2003 18018KT 
     TEMPO 2006/2009 1500 -SHSN FEW005 BKN008 
     BECMG 2012/2015 34004KT
       
RJCH 191100Z 01004KT 9999 FEW030 SCT040 M03/M09 Q1019
TAF RJCH 191115Z 1912/2018 03004KT 9999 FEW020 SCT040 
     BECMG 1922/2000 19010KT 
     TEMPO 2000/2006 2000 -SHSN FEW005 BKN008 
     BECMG 2003/2006 30010KT
       
RJCK 191100Z 05004KT 9999 FEW020 BKN040 M05/M09 Q1016
TAF RJCK 191113Z 1912/2018 05004KT 9999 FEW015 BKN040 
     BECMG 1922/2000 19010KT 
     BECMG 2012/2015 26009KT
       
RJCB 191100Z 29003KT 250V330 9999 FEW040 M09/M12 Q1016
TAF RJCB 191108Z 1912/2018 32004KT 9999 FEW040 
     BECMG 2000/2003 16005KT 
     BECMG 2006/2009 35005KT 
     TEMPO 2009/2012 3000 -SHSN
       
RJCM 191100Z 00000KT 4500 -SHSN FEW008 SCT015 BKN020 M06/M08 Q1018
TAF RJCM 191117Z 1912/2018 21005KT 9999 FEW008 BKN020 
     TEMPO 1912/1914 3000 -SHSN
       
RJSA 191100Z 20006KT 9999 -SHSN FEW015 BKN035 M02/M08 Q1019
TAF RJSA 191105Z 1912/2018 22008KT 9999 FEW020 SCT040 
     TEMPO 2006/2012 1500 -SHSN FEW005 BKN008 BKN015
       
RJSK 191100Z VRB02KT 9999 FEW020 BKN040 M01/M07 Q1021
TAF RJSK 191105Z 1912/2018 13005KT 9999 FEW020 BKN040 
     TEMPO 2006/2012 1500 -SHSN FEW002 BKN005 BKN008 
     BECMG 2015/2018 30008KT
       
RJSS 191100Z 02005KT 350V070 9999 FEW030 BKN/// 01/M06 Q1020
TAF RJSS 191105Z 1912/2018 02005KT 9999 FEW030 
     BECMG 1912/1914 32004KT 
     BECMG 2000/2003 14008KT 
     BECMG 2009/2012 28004KT
       
RJSF 191100Z 03009KT 9999 FEW030 BKN/// 00/M07 Q1018
TAF RJSF 191105Z 1912/2018 34008KT 9999 FEW030 
     BECMG 1922/2000 20004KT 
     BECMG 2012/2015 36005KT
       
RJSN 191100Z 13003KT 9999 FEW030 BKN040 BKN/// 04/M00 Q1020
TAF RJSN 191106Z 1912/2018 14005KT 9999 FEW030 SCT040 
     BECMG 2009/2012 22006KT 
     TEMPO 2009/2015 4000 -SHRASNGS BR FEW010 BKN020 FEW020CB 
     BECMG 2012/2015 34012KT 
     TEMPO 2015/2018 3000 -SHSNRA BR